sensor_id;sensor_type;location;lat;lon;timestamp;temperature;humidity
12911;DHT22;6523;49.758;6.120;2023-02-21T00:01:54;2.20;99.90
12911;DHT22;6523;49.758;6.120;2023-02-21T00:04:38;2.10;99.90
12911;DHT22;6523;49.758;6.120;2023-02-21T00:07:23;1.80;99.90
12911;DHT22;6523;49.758;6.120;2023-02-21T00:10:10;1.50;99.90
12911;DHT22;6523;49.758;6.120;2023-02-21T00:12:54;1.70;99.90
12911;DHT22;6523;49.758;6.120;2023-02-21T00:15:39;1.60;99.90
12911;DHT22;6523;49.758;6.120;2023-02-21T00:18:23;1.50;99.90
12911;DHT22;6523;49.758;6.120;2023-02-21T00:21:08;1.30;99.90
12911;DHT22;6523;49.758;6.120;2023-02-21T00:23:52;1.50;99.90
12911;DHT22;6523;49.758;6.120;2023-02-21T00:26:36;1.50;99.90
12911;DHT22;6523;49.758;6.120;2023-02-21T00:29:21;1.40;99.90
12911;DHT22;6523;49.758;6.120;2023-02-21T00:32:05;1.50;99.90
12911;DHT22;6523;49.758;6.120;2023-02-21T00:34:49;1.30;99.90
12911;DHT22;6523;49.758;6.120;2023-02-21T00:37:34;1.40;99.90
12911;DHT22;6523;49.758;6.120;2023-02-21T00:40:18;1.30;99.90
12911;DHT22;6523;49.758;6.120;2023-02-21T00:43:02;1.40;99.90
12911;DHT22;6523;49.758;6.120;2023-02-21T00:45:47;1.30;99.90
12911;DHT22;6523;49.758;6.120;2023-02-21T00:48:31;1.30;99.90
12911;DHT22;6523;49.758;6.120;2023-02-21T00:51:16;1.00;99.90
12911;DHT22;6523;49.758;6.120;2023-02-21T00:54:00;0.80;99.90
12911;DHT22;6523;49.758;6.120;2023-02-21T00:56:44;1.00;99.90
12911;DHT22;6523;49.758;6.120;2023-02-21T00:59:28;1.00;99.90
12911;DHT22;6523;49.758;6.120;2023-02-21T01:02:13;1.00;99.90
12911;DHT22;6523;49.758;6.120;2023-02-21T01:04:57;0.80;99.90
12911;DHT22;6523;49.758;6.120;2023-02-21T01:07:41;0.90;99.90
12911;DHT22;6523;49.758;6.120;2023-02-21T01:10:25;1.00;99.90
12911;DHT22;6523;49.758;6.120;2023-02-21T01:13:10;1.00;99.90
12911;DHT22;6523;49.758;6.120;2023-02-21T01:15:54;0.90;99.90
12911;DHT22;6523;49.758;6.120;2023-02-21T01:18:38;0.70;99.90
12911;DHT22;6523;49.758;6.120;2023-02-21T01:21:23;0.70;99.90
12911;DHT22;6523;49.758;6.120;2023-02-21T01:24:11;0.70;99.90
12911;DHT22;6523;49.758;6.120;2023-02-21T01:26:55;0.90;99.90
12911;DHT22;6523;49.758;6.120;2023-02-21T01:29:39;0.90;99.90
12911;DHT22;6523;49.758;6.120;2023-02-21T01:32:24;0.90;99.90
12911;DHT22;6523;49.758;6.120;2023-02-21T01:35:08;0.90;99.90
12911;DHT22;6523;49.758;6.120;2023-02-21T01:37:52;0.80;99.90
12911;DHT22;6523;49.758;6.120;2023-02-21T01:40:37;0.80;99.90
12911;DHT22;6523;49.758;6.120;2023-02-21T01:43:23;0.70;99.90
12911;DHT22;6523;49.758;6.120;2023-02-21T01:46:10;0.70;99.90
12911;DHT22;6523;49.758;6.120;2023-02-21T01:48:56;0.40;99.90
12911;DHT22;6523;49.758;6.120;2023-02-21T01:51:41;0.50;99.90
12911;DHT22;6523;49.758;6.120;2023-02-21T01:54:29;0.50;99.90
12911;DHT22;6523;49.758;6.120;2023-02-21T01:57:15;0.70;99.90
12911;DHT22;6523;49.758;6.120;2023-02-21T02:00:03;0.60;99.90
12911;DHT22;6523;49.758;6.120;2023-02-21T02:02:54;0.40;99.90
12911;DHT22;6523;49.758;6.120;2023-02-21T02:05:40;0.40;99.90
12911;DHT22;6523;49.758;6.120;2023-02-21T02:08:28;0.50;99.90
12911;DHT22;6523;49.758;6.120;2023-02-21T02:11:27;0.60;99.90
12911;DHT22;6523;49.758;6.120;2023-02-21T02:17:16;0.40;99.90
12911;DHT22;6523;49.758;6.120;2023-02-21T02:20:01;0.30;99.90
12911;DHT22;6523;49.758;6.120;2023-02-21T02:25:01;0.40;99.90
12911;DHT22;6523;49.758;6.120;2023-02-21T02:27:50;0.30;99.90
12911;DHT22;6523;49.758;6.120;2023-02-21T02:30:39;0.10;99.90
12911;DHT22;6523;49.758;6.120;2023-02-21T02:33:29;0.20;99.90
12911;DHT22;6523;49.758;6.120;2023-02-21T02:39:05;0.10;99.90
12911;DHT22;6523;49.758;6.120;2023-02-21T02:44:50;0.10;99.90
12911;DHT22;6523;49.758;6.120;2023-02-21T02:47:22;0.20;99.90
12911;DHT22;6523;49.758;6.120;2023-02-21T02:49:50;0.20;99.90
12911;DHT22;6523;49.758;6.120;2023-02-21T02:52:16;0.20;99.90
12911;DHT22;6523;49.758;6.120;2023-02-21T02:54:42;0.20;99.90
12911;DHT22;6523;49.758;6.120;2023-02-21T02:57:09;0.10;99.90
12911;DHT22;6523;49.758;6.120;2023-02-21T02:59:43;0.00;99.90
12911;DHT22;6523;49.758;6.120;2023-02-21T03:02:30;-0.20;99.90
12911;DHT22;6523;49.758;6.120;2023-02-21T03:07:44;-0.30;99.90
12911;DHT22;6523;49.758;6.120;2023-02-21T03:18:47;0.00;99.90
12911;DHT22;6523;49.758;6.120;2023-02-21T03:21:18;0.10;99.90
12911;DHT22;6523;49.758;6.120;2023-02-21T03:23:49;0.20;99.90
12911;DHT22;6523;49.758;6.120;2023-02-21T03:26:16;0.20;99.90
12911;DHT22;6523;49.758;6.120;2023-02-21T03:28:43;0.10;99.90
12911;DHT22;6523;49.758;6.120;2023-02-21T03:31:10;0.00;99.90
12911;DHT22;6523;49.758;6.120;2023-02-21T03:33:38;-0.20;99.90
12911;DHT22;6523;49.758;6.120;2023-02-21T03:36:08;-0.10;99.90
12911;DHT22;6523;49.758;6.120;2023-02-21T03:38:33;-0.20;99.90
12911;DHT22;6523;49.758;6.120;2023-02-21T03:40:59;-0.20;99.90
12911;DHT22;6523;49.758;6.120;2023-02-21T03:43:25;-0.20;99.90
12911;DHT22;6523;49.758;6.120;2023-02-21T03:45:51;-0.20;99.90
12911;DHT22;6523;49.758;6.120;2023-02-21T03:48:16;0.00;99.90
12911;DHT22;6523;49.758;6.120;2023-02-21T03:50:42;-0.10;99.90
12911;DHT22;6523;49.758;6.120;2023-02-21T03:53:08;-0.20;99.90
12911;DHT22;6523;49.758;6.120;2023-02-21T03:55:34;-0.40;99.90
12911;DHT22;6523;49.758;6.120;2023-02-21T03:58:00;-0.50;99.90
12911;DHT22;6523;49.758;6.120;2023-02-21T04:00:25;-0.40;99.90
12911;DHT22;6523;49.758;6.120;2023-02-21T04:02:51;-0.50;99.90
12911;DHT22;6523;49.758;6.120;2023-02-21T04:05:16;-0.50;99.90
12911;DHT22;6523;49.758;6.120;2023-02-21T04:07:42;-0.50;99.90
12911;DHT22;6523;49.758;6.120;2023-02-21T04:10:08;-0.50;99.90
12911;DHT22;6523;49.758;6.120;2023-02-21T04:12:33;-0.30;99.90
12911;DHT22;6523;49.758;6.120;2023-02-21T04:14:59;-0.30;99.90
12911;DHT22;6523;49.758;6.120;2023-02-21T04:17:24;-0.40;99.90
12911;DHT22;6523;49.758;6.120;2023-02-21T04:19:50;-0.40;99.90
12911;DHT22;6523;49.758;6.120;2023-02-21T04:22:16;-0.40;99.90
12911;DHT22;6523;49.758;6.120;2023-02-21T04:24:41;-0.40;99.90
12911;DHT22;6523;49.758;6.120;2023-02-21T04:27:07;-0.30;99.90
12911;DHT22;6523;49.758;6.120;2023-02-21T04:29:33;-0.30;99.90
12911;DHT22;6523;49.758;6.120;2023-02-21T04:31:58;-0.20;99.90
12911;DHT22;6523;49.758;6.120;2023-02-21T04:34:24;-0.20;99.90
12911;DHT22;6523;49.758;6.120;2023-02-21T04:36:49;-0.30;99.90
12911;DHT22;6523;49.758;6.120;2023-02-21T04:39:15;-0.40;99.90
12911;DHT22;6523;49.758;6.120;2023-02-21T04:41:41;-0.50;99.90
12911;DHT22;6523;49.758;6.120;2023-02-21T04:44:06;-0.60;99.90
12911;DHT22;6523;49.758;6.120;2023-02-21T04:46:32;-0.50;99.90
12911;DHT22;6523;49.758;6.120;2023-02-21T04:48:58;-0.50;99.90
12911;DHT22;6523;49.758;6.120;2023-02-21T04:51:24;-0.50;99.90
12911;DHT22;6523;49.758;6.120;2023-02-21T04:53:51;-0.30;99.90
12911;DHT22;6523;49.758;6.120;2023-02-21T04:56:18;-0.60;99.90
12911;DHT22;6523;49.758;6.120;2023-02-21T04:58:45;-0.70;99.90
12911;DHT22;6523;49.758;6.120;2023-02-21T05:01:12;-0.70;99.90
12911;DHT22;6523;49.758;6.120;2023-02-21T05:03:38;-0.70;99.90
12911;DHT22;6523;49.758;6.120;2023-02-21T05:06:03;-0.60;99.90
12911;DHT22;6523;49.758;6.120;2023-02-21T05:08:29;-0.40;99.90
12911;DHT22;6523;49.758;6.120;2023-02-21T05:10:55;-0.40;99.90
12911;DHT22;6523;49.758;6.120;2023-02-21T05:13:21;-0.50;99.90
12911;DHT22;6523;49.758;6.120;2023-02-21T05:15:47;-0.60;99.90
12911;DHT22;6523;49.758;6.120;2023-02-21T05:18:12;-0.60;99.90
12911;DHT22;6523;49.758;6.120;2023-02-21T05:20:38;-0.60;99.90
12911;DHT22;6523;49.758;6.120;2023-02-21T05:23:04;-0.60;99.90
12911;DHT22;6523;49.758;6.120;2023-02-21T05:25:29;-0.60;99.90
12911;DHT22;6523;49.758;6.120;2023-02-21T05:27:55;-0.70;99.90
12911;DHT22;6523;49.758;6.120;2023-02-21T05:30:22;-0.80;99.90
12911;DHT22;6523;49.758;6.120;2023-02-21T05:32:48;-0.70;99.90
12911;DHT22;6523;49.758;6.120;2023-02-21T05:35:15;-0.60;99.90
12911;DHT22;6523;49.758;6.120;2023-02-21T05:37:41;-0.50;99.90
12911;DHT22;6523;49.758;6.120;2023-02-21T05:40:09;-0.40;99.90
12911;DHT22;6523;49.758;6.120;2023-02-21T05:42:36;-0.40;99.90
12911;DHT22;6523;49.758;6.120;2023-02-21T05:45:01;-0.50;99.90
12911;DHT22;6523;49.758;6.120;2023-02-21T05:47:32;-0.50;99.90
12911;DHT22;6523;49.758;6.120;2023-02-21T05:49:58;-0.50;99.90
12911;DHT22;6523;49.758;6.120;2023-02-21T05:52:24;-0.50;99.90
12911;DHT22;6523;49.758;6.120;2023-02-21T05:54:50;-0.40;99.90
12911;DHT22;6523;49.758;6.120;2023-02-21T05:57:15;-0.40;99.90
12911;DHT22;6523;49.758;6.120;2023-02-21T05:59:41;-0.30;99.90
12911;DHT22;6523;49.758;6.120;2023-02-21T06:02:07;-0.50;99.90
12911;DHT22;6523;49.758;6.120;2023-02-21T06:04:33;-0.40;99.90
12911;DHT22;6523;49.758;6.120;2023-02-21T06:06:58;-0.50;99.90
12911;DHT22;6523;49.758;6.120;2023-02-21T06:09:24;-0.50;99.90
12911;DHT22;6523;49.758;6.120;2023-02-21T06:11:50;-0.50;99.90
12911;DHT22;6523;49.758;6.120;2023-02-21T06:14:18;-0.50;99.90
12911;DHT22;6523;49.758;6.120;2023-02-21T06:16:44;-0.50;99.90
12911;DHT22;6523;49.758;6.120;2023-02-21T06:19:11;-0.60;99.90
12911;DHT22;6523;49.758;6.120;2023-02-21T06:21:38;-0.60;99.90
12911;DHT22;6523;49.758;6.120;2023-02-21T06:24:05;-0.70;99.90
12911;DHT22;6523;49.758;6.120;2023-02-21T06:26:31;-0.90;99.90
12911;DHT22;6523;49.758;6.120;2023-02-21T06:28:57;-0.90;99.90
12911;DHT22;6523;49.758;6.120;2023-02-21T06:31:22;-0.90;99.90
12911;DHT22;6523;49.758;6.120;2023-02-21T06:33:48;-0.90;99.90
12911;DHT22;6523;49.758;6.120;2023-02-21T06:36:16;-0.80;99.90
12911;DHT22;6523;49.758;6.120;2023-02-21T06:38:44;-0.60;99.90
12911;DHT22;6523;49.758;6.120;2023-02-21T06:41:10;-0.50;99.90
12911;DHT22;6523;49.758;6.120;2023-02-21T06:43:36;-0.50;99.90
12911;DHT22;6523;49.758;6.120;2023-02-21T06:46:02;-0.40;99.90
12911;DHT22;6523;49.758;6.120;2023-02-21T06:48:29;-0.50;99.90
12911;DHT22;6523;49.758;6.120;2023-02-21T06:50:54;-0.60;99.90
12911;DHT22;6523;49.758;6.120;2023-02-21T06:53:20;-0.50;99.90
12911;DHT22;6523;49.758;6.120;2023-02-21T06:55:45;-0.50;99.90
12911;DHT22;6523;49.758;6.120;2023-02-21T06:58:11;-0.50;99.90
12911;DHT22;6523;49.758;6.120;2023-02-21T07:00:36;-0.40;99.90
12911;DHT22;6523;49.758;6.120;2023-02-21T07:03:02;-0.40;99.90
12911;DHT22;6523;49.758;6.120;2023-02-21T07:05:27;-0.50;99.90
12911;DHT22;6523;49.758;6.120;2023-02-21T07:07:54;-0.50;99.90
12911;DHT22;6523;49.758;6.120;2023-02-21T07:10:19;-0.40;99.90
12911;DHT22;6523;49.758;6.120;2023-02-21T07:12:45;-0.50;99.90
12911;DHT22;6523;49.758;6.120;2023-02-21T07:15:10;-0.40;99.90
12911;DHT22;6523;49.758;6.120;2023-02-21T07:17:36;-0.30;99.90
12911;DHT22;6523;49.758;6.120;2023-02-21T07:20:02;-0.30;99.90
12911;DHT22;6523;49.758;6.120;2023-02-21T07:22:29;-0.30;99.90
12911;DHT22;6523;49.758;6.120;2023-02-21T07:24:55;-0.20;99.90
12911;DHT22;6523;49.758;6.120;2023-02-21T07:27:20;-0.30;99.90
12911;DHT22;6523;49.758;6.120;2023-02-21T07:29:47;-0.20;99.90
12911;DHT22;6523;49.758;6.120;2023-02-21T07:32:14;-0.20;99.90
12911;DHT22;6523;49.758;6.120;2023-02-21T07:34:39;-0.10;99.90
12911;DHT22;6523;49.758;6.120;2023-02-21T07:37:05;-0.10;99.90
12911;DHT22;6523;49.758;6.120;2023-02-21T07:39:30;0.00;99.90
12911;DHT22;6523;49.758;6.120;2023-02-21T07:41:56;0.00;99.90
12911;DHT22;6523;49.758;6.120;2023-02-21T07:44:22;0.10;99.90
12911;DHT22;6523;49.758;6.120;2023-02-21T07:46:47;0.00;99.90
12911;DHT22;6523;49.758;6.120;2023-02-21T07:49:13;-0.10;99.90
12911;DHT22;6523;49.758;6.120;2023-02-21T07:51:38;0.10;99.90
12911;DHT22;6523;49.758;6.120;2023-02-21T07:54:04;0.20;99.90
12911;DHT22;6523;49.758;6.120;2023-02-21T07:56:30;0.10;99.90
12911;DHT22;6523;49.758;6.120;2023-02-21T07:58:55;0.30;99.90
12911;DHT22;6523;49.758;6.120;2023-02-21T08:01:23;0.40;99.90
12911;DHT22;6523;49.758;6.120;2023-02-21T08:03:49;0.50;99.90
12911;DHT22;6523;49.758;6.120;2023-02-21T08:06:14;0.50;99.90
12911;DHT22;6523;49.758;6.120;2023-02-21T08:08:40;0.50;99.90
12911;DHT22;6523;49.758;6.120;2023-02-21T08:11:05;0.70;99.90
12911;DHT22;6523;49.758;6.120;2023-02-21T08:13:31;0.70;99.90
12911;DHT22;6523;49.758;6.120;2023-02-21T08:15:56;0.80;99.90
12911;DHT22;6523;49.758;6.120;2023-02-21T08:18:22;0.80;99.90
12911;DHT22;6523;49.758;6.120;2023-02-21T08:20:49;1.00;99.90
12911;DHT22;6523;49.758;6.120;2023-02-21T08:23:16;1.10;99.90
12911;DHT22;6523;49.758;6.120;2023-02-21T08:25:43;1.10;99.90
12911;DHT22;6523;49.758;6.120;2023-02-21T08:28:08;1.00;99.90
12911;DHT22;6523;49.758;6.120;2023-02-21T08:30:34;0.90;99.90
12911;DHT22;6523;49.758;6.120;2023-02-21T08:33:00;0.90;99.90
12911;DHT22;6523;49.758;6.120;2023-02-21T08:35:25;0.90;99.90
12911;DHT22;6523;49.758;6.120;2023-02-21T08:37:51;1.10;99.90
12911;DHT22;6523;49.758;6.120;2023-02-21T08:40:22;1.40;99.90
12911;DHT22;6523;49.758;6.120;2023-02-21T08:42:49;1.50;99.90
12911;DHT22;6523;49.758;6.120;2023-02-21T08:45:16;1.40;99.90
12911;DHT22;6523;49.758;6.120;2023-02-21T08:47:43;1.50;99.90
12911;DHT22;6523;49.758;6.120;2023-02-21T08:50:09;1.60;99.90
12911;DHT22;6523;49.758;6.120;2023-02-21T08:52:34;1.80;99.90
12911;DHT22;6523;49.758;6.120;2023-02-21T08:55:00;1.60;99.90
12911;DHT22;6523;49.758;6.120;2023-02-21T08:57:25;1.80;99.90
12911;DHT22;6523;49.758;6.120;2023-02-21T08:59:51;1.90;99.90
12911;DHT22;6523;49.758;6.120;2023-02-21T09:02:21;2.10;99.90
12911;DHT22;6523;49.758;6.120;2023-02-21T09:04:49;2.20;99.90
12911;DHT22;6523;49.758;6.120;2023-02-21T09:07:18;2.40;99.90
12911;DHT22;6523;49.758;6.120;2023-02-21T09:09:44;2.50;99.90
12911;DHT22;6523;49.758;6.120;2023-02-21T09:12:10;2.50;99.90
12911;DHT22;6523;49.758;6.120;2023-02-21T09:14:38;2.60;99.90
12911;DHT22;6523;49.758;6.120;2023-02-21T09:17:05;2.60;99.90
12911;DHT22;6523;49.758;6.120;2023-02-21T09:19:31;2.60;99.90
12911;DHT22;6523;49.758;6.120;2023-02-21T09:21:57;2.30;99.90
12911;DHT22;6523;49.758;6.120;2023-02-21T09:24:25;2.30;99.90
12911;DHT22;6523;49.758;6.120;2023-02-21T09:26:52;2.20;99.90
12911;DHT22;6523;49.758;6.120;2023-02-21T09:29:24;2.60;99.90
12911;DHT22;6523;49.758;6.120;2023-02-21T09:31:50;2.40;99.90
12911;DHT22;6523;49.758;6.120;2023-02-21T09:34:16;2.50;99.90
12911;DHT22;6523;49.758;6.120;2023-02-21T09:36:42;2.40;99.90
12911;DHT22;6523;49.758;6.120;2023-02-21T09:39:08;2.70;99.90
12911;DHT22;6523;49.758;6.120;2023-02-21T09:41:35;2.90;99.90
12911;DHT22;6523;49.758;6.120;2023-02-21T09:44:03;3.30;99.90
12911;DHT22;6523;49.758;6.120;2023-02-21T09:46:39;3.40;99.90
12911;DHT22;6523;49.758;6.120;2023-02-21T09:51:44;3.40;99.90
12911;DHT22;6523;49.758;6.120;2023-02-21T09:54:22;3.30;99.90
12911;DHT22;6523;49.758;6.120;2023-02-21T09:56:48;3.20;99.90
12911;DHT22;6523;49.758;6.120;2023-02-21T09:59:14;3.70;99.90
12911;DHT22;6523;49.758;6.120;2023-02-21T10:02:08;4.10;99.90
12911;DHT22;6523;49.758;6.120;2023-02-21T10:08:01;4.10;99.90
12911;DHT22;6523;49.758;6.120;2023-02-21T10:10:48;4.00;99.90
12911;DHT22;6523;49.758;6.120;2023-02-21T10:13:25;4.50;99.90
12911;DHT22;6523;49.758;6.120;2023-02-21T10:16:20;4.30;99.90
12911;DHT22;6523;49.758;6.120;2023-02-21T10:19:16;4.80;99.90
12911;DHT22;6523;49.758;6.120;2023-02-21T10:21:47;5.00;99.90
12911;DHT22;6523;49.758;6.120;2023-02-21T10:24:23;5.10;99.90
12911;DHT22;6523;49.758;6.120;2023-02-21T10:27:04;5.60;99.90
12911;DHT22;6523;49.758;6.120;2023-02-21T10:29:39;5.30;99.90
12911;DHT22;6523;49.758;6.120;2023-02-21T10:32:08;5.30;99.90
12911;DHT22;6523;49.758;6.120;2023-02-21T10:34:34;5.30;99.90
12911;DHT22;6523;49.758;6.120;2023-02-21T10:39:51;7.30;99.90
12911;DHT22;6523;49.758;6.120;2023-02-21T10:42:30;7.40;99.90
12911;DHT22;6523;49.758;6.120;2023-02-21T10:44:56;7.60;99.90
12911;DHT22;6523;49.758;6.120;2023-02-21T10:47:27;7.20;99.90
12911;DHT22;6523;49.758;6.120;2023-02-21T10:50:02;8.10;99.90
12911;DHT22;6523;49.758;6.120;2023-02-21T10:52:28;8.90;99.90
12911;DHT22;6523;49.758;6.120;2023-02-21T10:57:29;9.40;99.90
12911;DHT22;6523;49.758;6.120;2023-02-21T10:59:56;9.70;99.90
12911;DHT22;6523;49.758;6.120;2023-02-21T11:04:54;9.90;99.90
12911;DHT22;6523;49.758;6.120;2023-02-21T11:07:19;10.40;99.90
12911;DHT22;6523;49.758;6.120;2023-02-21T11:09:47;10.50;99.90
12911;DHT22;6523;49.758;6.120;2023-02-21T11:14:41;10.30;99.90
12911;DHT22;6523;49.758;6.120;2023-02-21T11:17:18;10.70;99.90
12911;DHT22;6523;49.758;6.120;2023-02-21T11:19:45;11.60;99.90
12911;DHT22;6523;49.758;6.120;2023-02-21T11:22:12;12.20;99.90
12911;DHT22;6523;49.758;6.120;2023-02-21T11:24:48;11.90;99.90
12911;DHT22;6523;49.758;6.120;2023-02-21T11:27:15;12.60;99.90
12911;DHT22;6523;49.758;6.120;2023-02-21T11:29:43;13.10;99.90
12911;DHT22;6523;49.758;6.120;2023-02-21T11:32:36;13.00;99.90
12911;DHT22;6523;49.758;6.120;2023-02-21T11:35:06;12.80;99.90
12911;DHT22;6523;49.758;6.120;2023-02-21T11:37:33;13.80;99.90
12911;DHT22;6523;49.758;6.120;2023-02-21T11:39:59;14.10;99.90
12911;DHT22;6523;49.758;6.120;2023-02-21T11:42:32;14.30;99.90
12911;DHT22;6523;49.758;6.120;2023-02-21T11:45:23;14.40;99.90
12911;DHT22;6523;49.758;6.120;2023-02-21T11:48:00;13.80;99.90
12911;DHT22;6523;49.758;6.120;2023-02-21T11:50:32;13.60;99.90
12911;DHT22;6523;49.758;6.120;2023-02-21T11:53:12;14.60;99.90
12911;DHT22;6523;49.758;6.120;2023-02-21T11:55:41;14.90;99.90
12911;DHT22;6523;49.758;6.120;2023-02-21T11:58:48;15.20;99.90
12911;DHT22;6523;49.758;6.120;2023-02-21T12:04:22;15.80;99.90
12911;DHT22;6523;49.758;6.120;2023-02-21T12:07:11;15.50;99.90
12911;DHT22;6523;49.758;6.120;2023-02-21T12:09:48;14.70;99.90
12911;DHT22;6523;49.758;6.120;2023-02-21T12:12:54;15.50;99.90
12911;DHT22;6523;49.758;6.120;2023-02-21T12:15:29;16.30;99.90
12911;DHT22;6523;49.758;6.120;2023-02-21T12:18:20;15.60;99.90
12911;DHT22;6523;49.758;6.120;2023-02-21T12:20:52;15.40;99.90
12911;DHT22;6523;49.758;6.120;2023-02-21T12:23:40;15.00;99.90
12911;DHT22;6523;49.758;6.120;2023-02-21T12:32:39;15.70;99.90
12911;DHT22;6523;49.758;6.120;2023-02-21T12:35:39;16.30;99.90
12911;DHT22;6523;49.758;6.120;2023-02-21T12:38:21;16.10;99.90
12911;DHT22;6523;49.758;6.120;2023-02-21T12:43:59;16.60;99.90
12911;DHT22;6523;49.758;6.120;2023-02-21T12:46:38;16.50;99.90
12911;DHT22;6523;49.758;6.120;2023-02-21T12:51:37;16.40;99.90
12911;DHT22;6523;49.758;6.120;2023-02-21T12:54:13;16.30;99.90
12911;DHT22;6523;49.758;6.120;2023-02-21T12:56:52;16.90;99.90
12911;DHT22;6523;49.758;6.120;2023-02-21T12:59:45;16.80;99.90
12911;DHT22;6523;49.758;6.120;2023-02-21T13:02:30;17.40;99.90
12911;DHT22;6523;49.758;6.120;2023-02-21T13:05:06;16.90;99.90
12911;DHT22;6523;49.758;6.120;2023-02-21T13:07:51;16.80;99.90
12911;DHT22;6523;49.758;6.120;2023-02-21T13:10:41;16.50;99.90
12911;DHT22;6523;49.758;6.120;2023-02-21T13:13:14;17.30;99.90
12911;DHT22;6523;49.758;6.120;2023-02-21T13:15:42;18.40;99.90
12911;DHT22;6523;49.758;6.120;2023-02-21T13:18:18;19.00;99.90
12911;DHT22;6523;49.758;6.120;2023-02-21T13:20:51;18.20;99.90
12911;DHT22;6523;49.758;6.120;2023-02-21T13:27:01;18.00;99.90
12911;DHT22;6523;49.758;6.120;2023-02-21T13:29:32;17.80;99.90
12911;DHT22;6523;49.758;6.120;2023-02-21T13:32:18;18.20;99.90
12911;DHT22;6523;49.758;6.120;2023-02-21T13:34:53;18.20;99.90
12911;DHT22;6523;49.758;6.120;2023-02-21T13:37:22;17.90;99.90
12911;DHT22;6523;49.758;6.120;2023-02-21T13:39:56;18.40;99.90
12911;DHT22;6523;49.758;6.120;2023-02-21T13:42:27;18.00;99.90
12911;DHT22;6523;49.758;6.120;2023-02-21T13:45:13;17.50;99.90
12911;DHT22;6523;49.758;6.120;2023-02-21T13:53:19;18.00;99.90
12911;DHT22;6523;49.758;6.120;2023-02-21T14:03:38;18.10;99.90
12911;DHT22;6523;49.758;6.120;2023-02-21T14:08:43;17.90;99.90
12911;DHT22;6523;49.758;6.120;2023-02-21T14:11:20;17.90;99.90
12911;DHT22;6523;49.758;6.120;2023-02-21T14:17:27;17.80;99.90
12911;DHT22;6523;49.758;6.120;2023-02-21T14:19:25;17.90;99.90
12911;DHT22;6523;49.758;6.120;2023-02-21T14:22:14;18.00;99.90
12911;DHT22;6523;49.758;6.120;2023-02-21T14:24:43;18.00;99.90
12911;DHT22;6523;49.758;6.120;2023-02-21T14:29:40;18.50;99.90
12911;DHT22;6523;49.758;6.120;2023-02-21T14:39:48;18.80;90.60
12911;DHT22;6523;49.758;6.120;2023-02-21T14:50:30;17.90;33.70
12911;DHT22;6523;49.758;6.120;2023-02-21T14:53:16;17.50;24.80
12911;DHT22;6523;49.758;6.120;2023-02-21T15:01:39;17.50;14.40
12911;DHT22;6523;49.758;6.120;2023-02-21T15:04:13;17.00;9.40
12911;DHT22;6523;49.758;6.120;2023-02-21T15:06:42;16.80;7.70
12911;DHT22;6523;49.758;6.120;2023-02-21T15:09:18;17.30;11.00
12911;DHT22;6523;49.758;6.120;2023-02-21T15:11:45;17.60;12.40
12911;DHT22;6523;49.758;6.120;2023-02-21T15:14:19;17.60;1.20
12911;DHT22;6523;49.758;6.120;2023-02-21T15:19:28;17.60;1.00
12911;DHT22;6523;49.758;6.120;2023-02-21T15:22:14;17.20;1.00
12911;DHT22;6523;49.758;6.120;2023-02-21T15:24:40;17.10;1.00
12911;DHT22;6523;49.758;6.120;2023-02-21T15:27:11;16.70;1.00
12911;DHT22;6523;49.758;6.120;2023-02-21T15:29:37;16.50;1.00
12911;DHT22;6523;49.758;6.120;2023-02-21T15:32:03;16.10;1.00
12911;DHT22;6523;49.758;6.120;2023-02-21T15:34:37;15.60;1.00
12911;DHT22;6523;49.758;6.120;2023-02-21T15:37:16;15.60;1.00
12911;DHT22;6523;49.758;6.120;2023-02-21T15:39:51;15.90;1.50
12911;DHT22;6523;49.758;6.120;2023-02-21T15:42:18;15.80;1.00
12911;DHT22;6523;49.758;6.120;2023-02-21T15:44:57;16.30;7.70
12911;DHT22;6523;49.758;6.120;2023-02-21T15:47:25;16.30;1.00
12911;DHT22;6523;49.758;6.120;2023-02-21T15:57:41;15.80;31.80
12911;DHT22;6523;49.758;6.120;2023-02-21T16:00:22;15.10;45.80
12911;DHT22;6523;49.758;6.120;2023-02-21T16:02:49;14.50;55.40
12911;DHT22;6523;49.758;6.120;2023-02-21T16:05:25;14.40;56.70
12911;DHT22;6523;49.758;6.120;2023-02-21T16:07:51;14.40;55.70
12911;DHT22;6523;49.758;6.120;2023-02-21T16:10:22;14.50;56.90
12911;DHT22;6523;49.758;6.120;2023-02-21T16:12:55;14.10;61.10
12911;DHT22;6523;49.758;6.120;2023-02-21T16:15:27;13.70;54.60
12911;DHT22;6523;49.758;6.120;2023-02-21T16:17:56;13.40;56.80
12911;DHT22;6523;49.758;6.120;2023-02-21T16:20:41;13.30;64.60
12911;DHT22;6523;49.758;6.120;2023-02-21T16:26:16;13.00;63.80
12911;DHT22;6523;49.758;6.120;2023-02-21T16:28:44;12.80;57.40
12911;DHT22;6523;49.758;6.120;2023-02-21T16:31:16;12.80;60.80
12911;DHT22;6523;49.758;6.120;2023-02-21T16:33:48;12.60;59.30
12911;DHT22;6523;49.758;6.120;2023-02-21T16:36:27;12.50;58.90
12911;DHT22;6523;49.758;6.120;2023-02-21T16:38:54;12.50;63.80
12911;DHT22;6523;49.758;6.120;2023-02-21T16:41:20;12.40;59.80
12911;DHT22;6523;49.758;6.120;2023-02-21T16:43:45;12.30;70.30
12911;DHT22;6523;49.758;6.120;2023-02-21T16:46:12;11.80;73.70
12911;DHT22;6523;49.758;6.120;2023-02-21T16:48:37;11.60;83.70
12911;DHT22;6523;49.758;6.120;2023-02-21T16:51:08;11.60;88.00
12911;DHT22;6523;49.758;6.120;2023-02-21T16:53:34;11.50;77.80
12911;DHT22;6523;49.758;6.120;2023-02-21T16:56:00;11.30;77.00
12911;DHT22;6523;49.758;6.120;2023-02-21T16:58:37;11.00;90.60
12911;DHT22;6523;49.758;6.120;2023-02-21T17:01:10;10.80;84.20
12911;DHT22;6523;49.758;6.120;2023-02-21T17:03:36;10.70;90.80
12911;DHT22;6523;49.758;6.120;2023-02-21T17:06:03;10.00;90.20
12911;DHT22;6523;49.758;6.120;2023-02-21T17:08:28;10.00;99.90
12911;DHT22;6523;49.758;6.120;2023-02-21T17:10:55;9.90;96.80
12911;DHT22;6523;49.758;6.120;2023-02-21T17:13:21;9.80;99.90
12911;DHT22;6523;49.758;6.120;2023-02-21T17:15:46;10.10;99.60
12911;DHT22;6523;49.758;6.120;2023-02-21T17:18:12;10.10;97.70
12911;DHT22;6523;49.758;6.120;2023-02-21T17:20:38;9.80;97.60
12911;DHT22;6523;49.758;6.120;2023-02-21T17:23:03;9.10;99.90
12911;DHT22;6523;49.758;6.120;2023-02-21T17:25:29;8.80;99.90
12911;DHT22;6523;49.758;6.120;2023-02-21T17:27:55;8.50;99.90
12911;DHT22;6523;49.758;6.120;2023-02-21T17:30:22;8.30;99.90
12911;DHT22;6523;49.758;6.120;2023-02-21T17:32:49;8.80;99.90
12911;DHT22;6523;49.758;6.120;2023-02-21T17:35:16;9.00;99.90
12911;DHT22;6523;49.758;6.120;2023-02-21T17:37:44;8.80;99.90
12911;DHT22;6523;49.758;6.120;2023-02-21T17:40:12;8.50;99.90
12911;DHT22;6523;49.758;6.120;2023-02-21T17:42:38;8.40;99.90
12911;DHT22;6523;49.758;6.120;2023-02-21T17:45:04;8.50;99.90
12911;DHT22;6523;49.758;6.120;2023-02-21T17:47:31;8.60;99.90
12911;DHT22;6523;49.758;6.120;2023-02-21T17:49:57;8.60;99.90
12911;DHT22;6523;49.758;6.120;2023-02-21T17:52:25;8.20;99.90
12911;DHT22;6523;49.758;6.120;2023-02-21T17:54:51;8.00;99.90
12911;DHT22;6523;49.758;6.120;2023-02-21T17:57:17;7.70;99.90
12911;DHT22;6523;49.758;6.120;2023-02-21T17:59:42;7.60;99.90
12911;DHT22;6523;49.758;6.120;2023-02-21T18:02:10;7.40;99.90
12911;DHT22;6523;49.758;6.120;2023-02-21T18:04:36;7.50;99.90
12911;DHT22;6523;49.758;6.120;2023-02-21T18:07:02;7.60;99.90
12911;DHT22;6523;49.758;6.120;2023-02-21T18:09:28;7.30;99.90
12911;DHT22;6523;49.758;6.120;2023-02-21T18:11:55;7.00;99.90
12911;DHT22;6523;49.758;6.120;2023-02-21T18:14:24;6.80;99.90
12911;DHT22;6523;49.758;6.120;2023-02-21T18:16:51;6.50;99.90
12911;DHT22;6523;49.758;6.120;2023-02-21T18:19:17;6.80;99.90